Time,TemperatureF,DewpointF,PressureIn,WindDirection,WindDirectionDegrees,WindSpeedMPH,WindSpeedGustMPH,Humidity,HourlyPrecipIn,Conditions,Clouds,dailyrainin,SoftwareType,DateUTC
2013-03-11 00:12:00,41.0,23.0,29.98,SW,228,16.0,25.0,48,0.00,,,0.00,,2013-03-11 06:12:00,
2013-03-11 00:22:00,41.0,23.0,29.98,SW,228,16.0,25.0,48,0.00,,,0.00,,2013-03-11 06:22:00,
2013-03-11 00:32:00,41.0,23.0,29.98,SW,228,16.0,25.0,48,0.00,,,0.00,,2013-03-11 06:32:00,
2013-03-11 00:42:00,41.0,23.0,29.98,SW,228,16.0,25.0,48,0.00,,,0.00,,2013-03-11 06:42:00,
2013-03-11 00:52:00,41.0,23.0,29.98,SW,228,16.0,25.0,48,0.00,,,0.00,,2013-03-11 06:52:00,
2013-03-11 01:12:00,39.0,21.0,29.95,SW,216,20.0,32.0,48,0.00,,,0.00,,2013-03-11 07:12:00,
2013-03-11 01:22:00,39.0,21.0,29.95,SW,216,20.0,32.0,48,0.00,,,0.00,,2013-03-11 07:22:00,
2013-03-11 01:32:00,39.0,21.0,29.95,SW,216,20.0,32.0,48,0.00,,,0.00,,2013-03-11 07:32:00,
2013-03-11 01:42:00,39.0,21.0,29.95,SW,216,20.0,32.0,48,0.00,,,0.00,,2013-03-11 07:42:00,
2013-03-11 01:52:00,39.0,21.0,29.95,SW,216,20.0,32.0,48,0.00,,,0.00,,2013-03-11 07:52:00,
2013-03-11 02:22:00,39.0,22.0,29.94,SW,219,16.0,27.0,49,0.00,,,0.00,,2013-03-11 08:22:00,
2013-03-11 02:32:00,39.0,22.0,29.94,SW,219,16.0,27.0,49,0.00,,,0.00,,2013-03-11 08:32:00,
2013-03-11 02:42:00,39.0,22.0,29.94,SW,219,16.0,27.0,49,0.00,,,0.00,,2013-03-11 08:42:00,
2013-03-11 02:51:00,39.0,22.0,29.94,SW,219,16.0,27.0,49,0.00,,,0.00,,2013-03-11 08:51:00,
2013-03-11 03:12:00,37.0,20.0,29.95,SW,220,16.0,27.0,48,0.00,,,0.00,,2013-03-11 09:12:00,
2013-03-11 03:22:00,37.0,20.0,29.95,SW,220,16.0,27.0,48,0.00,,,0.00,,2013-03-11 09:22:00,
2013-03-11 03:32:00,37.0,20.0,29.95,SW,220,16.0,27.0,48,0.00,,,0.00,,2013-03-11 09:32:00,
2013-03-11 03:42:00,37.0,20.0,29.95,SW,220,16.0,27.0,48,0.00,,,0.00,,2013-03-11 09:42:00,
2013-03-11 03:52:00,37.0,20.0,29.95,SW,220,16.0,27.0,48,0.00,,,0.00,,2013-03-11 09:52:00,
2013-03-11 04:12:00,37.0,20.0,29.98,SW,231,14.0,23.0,48,0.00,,,0.00,,2013-03-11 10:12:00,
2013-03-11 04:22:00,37.0,20.0,29.98,SW,231,14.0,23.0,48,0.00,,,0.00,,2013-03-11 10:22:00,
2013-03-11 04:32:00,37.0,20.0,29.98,SW,231,14.0,23.0,48,0.00,,,0.00,,2013-03-11 10:32:00,
2013-03-11 04:41:00,37.0,20.0,29.98,SW,231,14.0,23.0,48,0.00,,,0.00,,2013-03-11 10:41:00,
2013-03-11 04:52:00,37.0,20.0,29.98,SW,231,14.0,23.0,48,0.00,,,0.00,,2013-03-11 10:52:00,
2013-03-11 05:12:00,34.0,22.0,30.01,WNW,289,12.0,21.0,62,0.00,,,0.00,,2013-03-11 11:12:00,
2013-03-11 05:22:00,34.0,22.0,30.01,WNW,289,12.0,21.0,62,0.00,,,0.00,,2013-03-11 11:22:00,
2013-03-11 05:32:00,34.0,22.0,30.01,WNW,289,12.0,21.0,62,0.00,,,0.00,,2013-03-11 11:32:00,
2013-03-11 05:42:00,34.0,22.0,30.01,WNW,289,12.0,21.0,62,0.00,,,0.00,,2013-03-11 11:42:00,
2013-03-11 05:52:00,34.0,22.0,30.01,WNW,289,12.0,21.0,62,0.00,,,0.00,,2013-03-11 11:52:00,
2013-03-11 06:12:00,32.0,21.0,30.00,WSW,251,5.0,10.0,63,0.00,,,-99.99,,2013-03-11 12:12:00,
2013-03-11 06:22:00,32.0,21.0,30.00,WSW,251,5.0,10.0,63,0.00,,,-99.99,,2013-03-11 12:22:00,
2013-03-11 06:32:00,32.0,21.0,30.00,WSW,251,5.0,10.0,63,0.00,,,-99.99,,2013-03-11 12:32:00,
2013-03-11 06:42:00,32.0,21.0,30.00,WSW,251,5.0,10.0,63,0.00,,,-99.99,,2013-03-11 12:42:00,
2013-03-11 06:52:00,32.0,21.0,30.00,WSW,251,5.0,10.0,63,0.00,,,-99.99,,2013-03-11 12:52:00,
2013-03-11 07:22:00,32.0,20.0,29.99,SW,226,5.0,9.0,62,0.00,,,-99.99,,2013-03-11 13:22:00,
2013-03-11 07:32:00,32.0,20.0,29.99,SW,226,5.0,9.0,62,0.00,,,-99.99,,2013-03-11 13:32:00,
2013-03-11 07:42:00,32.0,20.0,29.99,SW,226,5.0,9.0,62,0.00,,,-99.99,,2013-03-11 13:42:00,
2013-03-11 07:52:00,32.0,20.0,29.99,SW,226,5.0,9.0,62,0.00,,,-99.99,,2013-03-11 13:52:00,
2013-03-11 08:12:00,32.0,22.0,30.00,West,261,5.0,9.0,66,0.00,,,0.00,,2013-03-11 14:12:00,
2013-03-11 08:22:00,32.0,22.0,30.00,West,261,5.0,9.0,66,0.00,,,0.00,,2013-03-11 14:22:00,
2013-03-11 08:32:00,32.0,22.0,30.00,West,261,5.0,9.0,66,0.00,,,0.00,,2013-03-11 14:32:00,
2013-03-11 08:42:00,32.0,22.0,30.00,West,261,5.0,9.0,66,0.00,,,0.00,,2013-03-11 14:42:00,
2013-03-11 08:52:00,32.0,22.0,30.00,West,261,5.0,9.0,66,0.00,,,0.00,,2013-03-11 14:52:00,
2013-03-11 09:22:00,28.0,21.0,30.02,West,264,6.0,9.0,74,0.00,,,0.00,,2013-03-11 15:22:00,
2013-03-11 09:32:00,28.0,21.0,30.02,West,264,6.0,9.0,74,0.00,,,0.00,,2013-03-11 15:32:00,
2013-03-11 09:42:00,28.0,21.0,30.02,West,264,6.0,9.0,74,0.00,,,0.00,,2013-03-11 15:42:00,
2013-03-11 09:52:00,28.0,21.0,30.02,West,264,6.0,9.0,74,0.00,,,0.00,,2013-03-11 15:52:00,
2013-03-11 10:12:00,28.0,22.0,30.05,WSW,249,6.0,12.0,75,0.00,,,0.00,,2013-03-11 16:12:00,
2013-03-11 10:22:00,28.0,22.0,30.05,WSW,249,6.0,12.0,75,0.00,,,0.00,,2013-03-11 16:22:00,
2013-03-11 10:32:00,28.0,22.0,30.05,WSW,249,6.0,12.0,75,0.00,,,0.00,,2013-03-11 16:32:00,
2013-03-11 10:42:00,28.0,22.0,30.05,WSW,249,6.0,12.0,75,0.00,,,0.00,,2013-03-11 16:42:00,
2013-03-11 10:52:00,28.0,22.0,30.05,WSW,249,6.0,12.0,75,0.00,,,0.00,,2013-03-11 16:52:00,
2013-03-11 11:13:00,28.0,21.0,30.07,West,270,8.0,13.0,74,0.00,,,-99.99,,2013-03-11 17:13:00,
2013-03-11 11:24:00,28.0,21.0,30.07,West,270,8.0,13.0,74,0.00,,,-99.99,,2013-03-11 17:24:00,
2013-03-11 11:34:00,28.0,21.0,30.07,West,270,8.0,13.0,74,0.00,,,-99.99,,2013-03-11 17:34:00,
2013-03-11 11:42:00,28.0,21.0,30.07,West,270,8.0,13.0,74,0.00,,,-99.99,,2013-03-11 17:42:00,
2013-03-11 11:52:00,28.0,21.0,30.07,West,270,8.0,13.0,74,0.00,,,-99.99,,2013-03-11 17:52:00,
2013-03-11 12:12:00,27.0,22.0,30.09,WNW,289,10.0,18.0,82,0.00,,,0.00,,2013-03-11 18:12:00,
2013-03-11 12:22:00,27.0,22.0,30.09,WNW,289,10.0,18.0,82,0.00,,,0.00,,2013-03-11 18:22:00,
2013-03-11 12:32:00,27.0,22.0,30.09,WNW,289,10.0,18.0,82,0.00,,,0.00,,2013-03-11 18:32:00,
2013-03-11 12:42:00,27.0,22.0,30.09,WNW,289,10.0,18.0,82,0.00,,,0.00,,2013-03-11 18:42:00,
2013-03-11 12:52:00,27.0,22.0,30.09,WNW,289,10.0,18.0,82,0.00,,,0.00,,2013-03-11 18:52:00,
2013-03-11 13:22:00,25.0,20.0,30.13,NW,305,10.0,18.0,83,0.00,,,0.00,,2013-03-11 19:22:00,
2013-03-11 13:32:00,25.0,20.0,30.13,NW,305,10.0,18.0,83,0.00,,,0.00,,2013-03-11 19:32:00,
2013-03-11 13:42:00,25.0,20.0,30.13,NW,305,10.0,18.0,83,0.00,,,0.00,,2013-03-11 19:42:00,
2013-03-11 13:52:00,25.0,20.0,30.13,NW,305,10.0,18.0,83,0.00,,,0.00,,2013-03-11 19:52:00,
2013-03-11 14:22:00,27.0,19.0,30.16,NW,324,10.0,17.0,74,0.00,,,0.00,,2013-03-11 20:22:00,
2013-03-11 14:32:00,27.0,19.0,30.16,NW,324,10.0,17.0,74,0.00,,,0.00,,2013-03-11 20:32:00,
2013-03-11 14:43:00,27.0,19.0,30.16,NW,324,10.0,17.0,74,0.00,,,0.00,,2013-03-11 20:43:00,
2013-03-11 14:52:00,27.0,19.0,30.16,NW,324,10.0,17.0,74,0.00,,,0.00,,2013-03-11 20:52:00,
2013-03-11 15:22:00,27.0,19.0,30.16,NW,321,9.0,17.0,73,0.00,,,0.00,,2013-03-11 21:22:00,
2013-03-11 15:32:00,27.0,19.0,30.16,NW,321,9.0,17.0,73,0.00,,,0.00,,2013-03-11 21:32:00,
2013-03-11 15:43:00,27.0,19.0,30.16,NW,321,9.0,17.0,73,0.00,,,0.00,,2013-03-11 21:43:00,
2013-03-11 15:51:00,27.0,19.0,30.16,NW,321,9.0,17.0,73,0.00,,,0.00,,2013-03-11 21:51:00,
2013-03-11 16:22:00,27.0,20.0,30.17,NW,310,9.0,17.0,77,0.00,,,-99.99,,2013-03-11 22:22:00,
2013-03-11 16:32:00,27.0,20.0,30.17,NW,310,9.0,17.0,77,0.00,,,-99.99,,2013-03-11 22:32:00,
2013-03-11 16:43:00,27.0,20.0,30.17,NW,310,9.0,17.0,77,0.00,,,-99.99,,2013-03-11 22:43:00,
2013-03-11 16:52:00,27.0,20.0,30.17,NW,310,9.0,17.0,77,0.00,,,-99.99,,2013-03-11 22:52:00,
2013-03-11 17:12:00,27.0,21.0,30.17,WNW,300,7.0,14.0,79,0.00,,,0.00,,2013-03-11 23:12:00,
2013-03-11 17:22:00,27.0,21.0,30.17,WNW,300,7.0,14.0,79,0.00,,,0.00,,2013-03-11 23:22:00,
2013-03-11 17:32:00,27.0,21.0,30.17,WNW,300,7.0,14.0,79,0.00,,,0.00,,2013-03-11 23:32:00,
2013-03-11 17:42:00,27.0,21.0,30.17,WNW,300,7.0,14.0,79,0.00,,,0.00,,2013-03-11 23:42:00,
2013-03-11 17:52:00,27.0,21.0,30.17,WNW,300,7.0,14.0,79,0.00,,,0.00,,2013-03-11 23:52:00,
2013-03-11 18:12:00,27.0,18.0,30.19,West,281,6.0,13.0,71,0.00,,,0.00,,2013-03-12 00:12:00,
2013-03-11 18:22:00,27.0,18.0,30.19,West,281,6.0,13.0,71,0.00,,,0.00,,2013-03-12 00:22:00,
2013-03-11 18:32:00,27.0,18.0,30.19,West,281,6.0,13.0,71,0.00,,,0.00,,2013-03-12 00:32:00,
2013-03-11 18:42:00,27.0,18.0,30.19,West,281,6.0,13.0,71,0.00,,,0.00,,2013-03-12 00:42:00,
2013-03-11 18:52:00,27.0,18.0,30.19,West,281,6.0,13.0,71,0.00,,,0.00,,2013-03-12 00:52:00,
2013-03-11 19:22:00,25.0,21.0,30.20,WNW,283,7.0,12.0,86,0.00,,,0.00,,2013-03-12 01:22:00,
2013-03-11 19:32:00,25.0,21.0,30.20,WNW,283,7.0,12.0,86,0.00,,,0.00,,2013-03-12 01:32:00,
2013-03-11 19:42:00,25.0,21.0,30.20,WNW,283,7.0,12.0,86,0.00,,,0.00,,2013-03-12 01:42:00,
2013-03-11 19:52:00,25.0,21.0,30.20,WNW,283,7.0,12.0,86,0.00,,,0.00,,2013-03-12 01:52:00,
2013-03-11 20:22:00,25.0,20.0,30.23,WNW,288,5.0,10.0,82,0.00,,,0.00,,2013-03-12 02:22:00,
2013-03-11 20:32:00,25.0,20.0,30.23,WNW,288,5.0,10.0,82,0.00,,,0.00,,2013-03-12 02:32:00,
2013-03-11 20:42:00,25.0,20.0,30.23,WNW,288,5.0,10.0,82,0.00,,,0.00,,2013-03-12 02:42:00,
2013-03-11 20:51:00,25.0,20.0,30.23,WNW,288,5.0,10.0,82,0.00,,,0.00,,2013-03-12 02:51:00,
2013-03-11 21:12:00,23.0,20.0,30.24,West,273,2.0,6.0,89,0.00,,,0.00,,2013-03-12 03:12:00,
2013-03-11 21:22:00,23.0,20.0,30.24,West,273,2.0,6.0,89,0.00,,,0.00,,2013-03-12 03:22:00,
2013-03-11 21:32:00,23.0,20.0,30.24,West,273,2.0,6.0,89,0.00,,,0.00,,2013-03-12 03:32:00,
2013-03-11 21:42:00,23.0,20.0,30.24,West,273,2.0,6.0,89,0.00,,,0.00,,2013-03-12 03:42:00,
2013-03-11 21:51:00,23.0,20.0,30.24,West,273,2.0,6.0,89,0.00,,,0.00,,2013-03-12 03:51:00,
2013-03-11 22:12:00,23.0,20.0,30.25,SW,227,2.0,5.0,88,0.00,,,0.00,,2013-03-12 04:12:00,
2013-03-11 22:22:00,23.0,20.0,30.25,SW,227,2.0,5.0,88,0.00,,,0.00,,2013-03-12 04:22:00,
2013-03-11 22:32:00,23.0,20.0,30.25,SW,227,2.0,5.0,88,0.00,,,0.00,,2013-03-12 04:32:00,
2013-03-11 22:42:00,23.0,20.0,30.25,SW,227,2.0,5.0,88,0.00,,,0.00,,2013-03-12 04:42:00,
2013-03-11 22:52:00,23.0,20.0,30.25,SW,227,2.0,5.0,88,0.00,,,0.00,,2013-03-12 04:52:00,
2013-03-11 23:12:00,23.0,20.0,30.25,SW,219,1.0,5.0,88,0.00,,,0.00,,2013-03-12 05:12:00,
2013-03-11 23:22:00,23.0,20.0,30.25,SW,219,1.0,5.0,88,0.00,,,0.00,,2013-03-12 05:22:00,
2013-03-11 23:32:00,23.0,20.0,30.25,SW,219,1.0,5.0,88,0.00,,,0.00,,2013-03-12 05:32:00,
2013-03-11 23:42:00,23.0,20.0,30.25,SW,219,1.0,5.0,88,0.00,,,0.00,,2013-03-12 05:42:00,
2013-03-11 23:51:00,23.0,20.0,30.25,SW,219,1.0,5.0,88,0.00,,,0.00,,2013-03-12 05:51:00,